<?xml version="1.0" encoding="UTF-8" standalone="no" ?>
<gpx xmlns="http://www.topografix.com/GPX/1/1" xmlns:xsi="http://www.w3.org/2001/XMLSchema-instance" xsi:schemaLocation="http://www.topografix.com/GPX/1/1 http://www.topografix.com/GPX/1/1/gpx.xsd" version="1.1" creator="VisuGPX - https://www.visugpx.com">
  <metadata>
    <name>2021-10-01-46-Montdoumerc</name>
    <desc><![CDATA[Randonnée de 10,5km pour environ 120m de dénivelé. pas de difficulté pour cette belle balade autour de Montdoumerc. De beaux pigeonniers à redécouvrir, trace légèrement modifiée dans un passage entre les maisons.]]></desc>
  </metadata>
  <trk>
    <name><![CDATA[13772005-Montdoumerc]]></name>
    <extensions>
      <line xmlns="http://www.topografix.com/GPX/gpx_style/0/2">
        <color>0000FF</color>
        <width>4</width>
      </line>
    </extensions>
    <trkseg>
      <trkpt lat="44.28578" lon="1.51923">
        <ele>260</ele>
        <time>2021-09-30T18:52:13Z</time>
      </trkpt>
      <trkpt lat="44.28564" lon="1.51912">
        <ele>259</ele>
        <time>2021-09-30T18:52:34Z</time>
      </trkpt>
      <trkpt lat="44.28524" lon="1.51912">
        <ele>257</ele>
        <time>2021-09-30T18:53:28Z</time>
      </trkpt>
      <trkpt lat="44.285" lon="1.51924">
        <ele>256</ele>
        <time>2021-09-30T18:54:02Z</time>
      </trkpt>
      <trkpt lat="44.28477" lon="1.51941">
        <ele>255</ele>
        <time>2021-09-30T18:54:37Z</time>
      </trkpt>
      <trkpt lat="44.28472" lon="1.51972">
        <ele>258</ele>
        <time>2021-09-30T18:55:07Z</time>
      </trkpt>
      <trkpt lat="44.28395" lon="1.52031">
        <ele>257</ele>
        <time>2021-09-30T18:57:04Z</time>
      </trkpt>
      <trkpt lat="44.28373" lon="1.52021">
        <ele>254</ele>
        <time>2021-09-30T18:57:35Z</time>
      </trkpt>
      <trkpt lat="44.28355" lon="1.52057">
        <ele>254</ele>
        <time>2021-09-30T18:58:17Z</time>
      </trkpt>
      <trkpt lat="44.28374" lon="1.52106">
        <ele>255</ele>
        <time>2021-09-30T18:59:10Z</time>
      </trkpt>
      <trkpt lat="44.28427" lon="1.52067">
        <ele>260</ele>
        <time>2021-09-30T19:00:30Z</time>
      </trkpt>
      <trkpt lat="44.2848" lon="1.52039">
        <ele>261</ele>
        <time>2021-09-30T19:01:46Z</time>
      </trkpt>
      <trkpt lat="44.2855" lon="1.52048">
        <ele>259</ele>
        <time>2021-09-30T19:03:20Z</time>
      </trkpt>
      <trkpt lat="44.2853" lon="1.5213">
        <ele>260</ele>
        <time>2021-09-30T19:04:42Z</time>
      </trkpt>
      <trkpt lat="44.28586" lon="1.52293">
        <ele>260</ele>
        <time>2021-09-30T19:07:35Z</time>
      </trkpt>
      <trkpt lat="44.28611" lon="1.52342">
        <ele>260</ele>
        <time>2021-09-30T19:08:32Z</time>
      </trkpt>
      <trkpt lat="44.28551" lon="1.52465">
        <ele>254</ele>
        <time>2021-09-30T19:10:55Z</time>
      </trkpt>
      <trkpt lat="44.28555" lon="1.52576">
        <ele>254</ele>
        <time>2021-09-30T19:12:41Z</time>
      </trkpt>
      <trkpt lat="44.28515" lon="1.52765">
        <ele>248</ele>
        <time>2021-09-30T19:15:49Z</time>
      </trkpt>
      <trkpt lat="44.28567" lon="1.52782">
        <ele>255</ele>
        <time>2021-09-30T19:17:00Z</time>
      </trkpt>
      <trkpt lat="44.28786" lon="1.52709">
        <ele>260</ele>
        <time>2021-09-30T19:22:01Z</time>
      </trkpt>
      <trkpt lat="44.28796" lon="1.52721">
        <ele>260</ele>
        <time>2021-09-30T19:22:18Z</time>
      </trkpt>
      <trkpt lat="44.28845" lon="1.5269">
        <ele>260</ele>
        <time>2021-09-30T19:23:30Z</time>
      </trkpt>
      <trkpt lat="44.28958" lon="1.52589">
        <ele>256</ele>
        <time>2021-09-30T19:26:29Z</time>
      </trkpt>
      <trkpt lat="44.29048" lon="1.52506">
        <ele>250</ele>
        <time>2021-09-30T19:28:53Z</time>
      </trkpt>
      <trkpt lat="44.29101" lon="1.5248">
        <ele>246</ele>
        <time>2021-09-30T19:30:08Z</time>
      </trkpt>
      <trkpt lat="44.29175" lon="1.52432">
        <ele>240</ele>
        <time>2021-09-30T19:31:57Z</time>
      </trkpt>
      <trkpt lat="44.29202" lon="1.52404">
        <ele>237</ele>
        <time>2021-09-30T19:32:42Z</time>
      </trkpt>
      <trkpt lat="44.29276" lon="1.52311">
        <ele>232</ele>
        <time>2021-09-30T19:34:55Z</time>
      </trkpt>
      <trkpt lat="44.29327" lon="1.52225">
        <ele>229</ele>
        <time>2021-09-30T19:36:41Z</time>
      </trkpt>
      <trkpt lat="44.29384" lon="1.52105">
        <ele>224</ele>
        <time>2021-09-30T19:38:59Z</time>
      </trkpt>
      <trkpt lat="44.29391" lon="1.52077">
        <ele>223</ele>
        <time>2021-09-30T19:39:27Z</time>
      </trkpt>
      <trkpt lat="44.29412" lon="1.52057">
        <ele>222</ele>
        <time>2021-09-30T19:40:01Z</time>
      </trkpt>
      <trkpt lat="44.29438" lon="1.52057">
        <ele>222</ele>
        <time>2021-09-30T19:40:36Z</time>
      </trkpt>
      <trkpt lat="44.29668" lon="1.52107">
        <ele>216</ele>
        <time>2021-09-30T19:45:46Z</time>
      </trkpt>
      <trkpt lat="44.29709" lon="1.52086">
        <ele>215</ele>
        <time>2021-09-30T19:46:45Z</time>
      </trkpt>
      <trkpt lat="44.29752" lon="1.52075">
        <ele>215</ele>
        <time>2021-09-30T19:47:43Z</time>
      </trkpt>
      <trkpt lat="44.29885" lon="1.5205">
        <ele>211</ele>
        <time>2021-09-30T19:50:42Z</time>
      </trkpt>
      <trkpt lat="44.2989" lon="1.52079">
        <ele>210</ele>
        <time>2021-09-30T19:51:11Z</time>
      </trkpt>
      <trkpt lat="44.29937" lon="1.52069">
        <ele>208</ele>
        <time>2021-09-30T19:52:14Z</time>
      </trkpt>
      <trkpt lat="44.29967" lon="1.52072">
        <ele>207</ele>
        <time>2021-09-30T19:52:54Z</time>
      </trkpt>
      <trkpt lat="44.3" lon="1.52095">
        <ele>205</ele>
        <time>2021-09-30T19:53:43Z</time>
      </trkpt>
      <trkpt lat="44.3001" lon="1.52165">
        <ele>205</ele>
        <time>2021-09-30T19:54:52Z</time>
      </trkpt>
      <trkpt lat="44.30027" lon="1.52205">
        <ele>206</ele>
        <time>2021-09-30T19:55:36Z</time>
      </trkpt>
      <trkpt lat="44.30091" lon="1.52301">
        <ele>207</ele>
        <time>2021-09-30T19:57:41Z</time>
      </trkpt>
      <trkpt lat="44.30139" lon="1.52334">
        <ele>207</ele>
        <time>2021-09-30T19:58:53Z</time>
      </trkpt>
      <trkpt lat="44.30282" lon="1.52517">
        <ele>213</ele>
        <time>2021-09-30T20:03:12Z</time>
      </trkpt>
      <trkpt lat="44.30302" lon="1.52556">
        <ele>213</ele>
        <time>2021-09-30T20:03:57Z</time>
      </trkpt>
      <trkpt lat="44.30343" lon="1.5261">
        <ele>213</ele>
        <time>2021-09-30T20:05:13Z</time>
      </trkpt>
      <trkpt lat="44.30349" lon="1.52611">
        <ele>213</ele>
        <time>2021-09-30T20:05:21Z</time>
      </trkpt>
      <trkpt lat="44.30377" lon="1.52627">
        <ele>212</ele>
        <time>2021-09-30T20:06:01Z</time>
      </trkpt>
      <trkpt lat="44.30401" lon="1.52628">
        <ele>212</ele>
        <time>2021-09-30T20:06:33Z</time>
      </trkpt>
      <trkpt lat="44.30511" lon="1.5266">
        <ele>210</ele>
        <time>2021-09-30T20:09:03Z</time>
      </trkpt>
      <trkpt lat="44.30542" lon="1.52671">
        <ele>209</ele>
        <time>2021-09-30T20:09:46Z</time>
      </trkpt>
      <trkpt lat="44.30644" lon="1.52751">
        <ele>208</ele>
        <time>2021-09-30T20:12:22Z</time>
      </trkpt>
      <trkpt lat="44.30727" lon="1.52784">
        <ele>209</ele>
        <time>2021-09-30T20:14:17Z</time>
      </trkpt>
      <trkpt lat="44.30761" lon="1.52812">
        <ele>210</ele>
        <time>2021-09-30T20:15:10Z</time>
      </trkpt>
      <trkpt lat="44.3084" lon="1.52589">
        <ele>218</ele>
        <time>2021-09-30T20:19:07Z</time>
      </trkpt>
      <trkpt lat="44.30855" lon="1.52581">
        <ele>218</ele>
        <time>2021-09-30T20:19:29Z</time>
      </trkpt>
      <trkpt lat="44.30907" lon="1.52501">
        <ele>221</ele>
        <time>2021-09-30T20:21:12Z</time>
      </trkpt>
      <trkpt lat="44.3099" lon="1.52579">
        <ele>220</ele>
        <time>2021-09-30T20:23:25Z</time>
      </trkpt>
      <trkpt lat="44.31022" lon="1.52572">
        <ele>221</ele>
        <time>2021-09-30T20:24:08Z</time>
      </trkpt>
      <trkpt lat="44.31089" lon="1.5263">
        <ele>224</ele>
        <time>2021-09-30T20:25:54Z</time>
      </trkpt>
      <trkpt lat="44.31105" lon="1.52622">
        <ele>224</ele>
        <time>2021-09-30T20:26:16Z</time>
      </trkpt>
      <trkpt lat="44.3113" lon="1.52577">
        <ele>226</ele>
        <time>2021-09-30T20:27:11Z</time>
      </trkpt>
      <trkpt lat="44.31161" lon="1.52542">
        <ele>229</ele>
        <time>2021-09-30T20:28:04Z</time>
      </trkpt>
      <trkpt lat="44.31173" lon="1.52519">
        <ele>230</ele>
        <time>2021-09-30T20:28:31Z</time>
      </trkpt>
      <trkpt lat="44.31178" lon="1.52493">
        <ele>232</ele>
        <time>2021-09-30T20:28:57Z</time>
      </trkpt>
      <trkpt lat="44.31266" lon="1.52338">
        <ele>244</ele>
        <time>2021-09-30T20:32:06Z</time>
      </trkpt>
      <trkpt lat="44.31291" lon="1.52284">
        <ele>246</ele>
        <time>2021-09-30T20:33:07Z</time>
      </trkpt>
      <trkpt lat="44.31314" lon="1.52252">
        <ele>247</ele>
        <time>2021-09-30T20:33:50Z</time>
      </trkpt>
      <trkpt lat="44.31359" lon="1.52174">
        <ele>250</ele>
        <time>2021-09-30T20:35:26Z</time>
      </trkpt>
      <trkpt lat="44.31406" lon="1.52074">
        <ele>251</ele>
        <time>2021-09-30T20:37:20Z</time>
      </trkpt>
      <trkpt lat="44.31452" lon="1.52">
        <ele>251</ele>
        <time>2021-09-30T20:38:54Z</time>
      </trkpt>
      <trkpt lat="44.31472" lon="1.51945">
        <ele>252</ele>
        <time>2021-09-30T20:39:53Z</time>
      </trkpt>
      <trkpt lat="44.3147" lon="1.51883">
        <ele>253</ele>
        <time>2021-09-30T20:40:52Z</time>
      </trkpt>
      <trkpt lat="44.31578" lon="1.51879">
        <ele>255</ele>
        <time>2021-09-30T20:43:16Z</time>
      </trkpt>
      <trkpt lat="44.31626" lon="1.51804">
        <ele>254</ele>
        <time>2021-09-30T20:44:52Z</time>
      </trkpt>
      <trkpt lat="44.31686" lon="1.51705">
        <ele>251</ele>
        <time>2021-09-30T20:46:56Z</time>
      </trkpt>
      <trkpt lat="44.31571" lon="1.51545">
        <ele>251</ele>
        <time>2021-09-30T20:50:33Z</time>
      </trkpt>
      <trkpt lat="44.31537" lon="1.51475">
        <ele>251</ele>
        <time>2021-09-30T20:51:54Z</time>
      </trkpt>
      <trkpt lat="44.31484" lon="1.51418">
        <ele>251</ele>
        <time>2021-09-30T20:53:23Z</time>
      </trkpt>
      <trkpt lat="44.31392" lon="1.51376">
        <ele>249</ele>
        <time>2021-09-30T20:55:32Z</time>
      </trkpt>
      <trkpt lat="44.31289" lon="1.51268">
        <ele>249</ele>
        <time>2021-09-30T20:57:48Z</time>
      </trkpt>
      <trkpt lat="44.31261" lon="1.51261">
        <ele>249</ele>
      </trkpt>
      <trkpt lat="44.31268" lon="1.51284">
        <ele>249.4</ele>
      </trkpt>
      <trkpt lat="44.31267" lon="1.51307">
        <ele>249.8</ele>
      </trkpt>
      <trkpt lat="44.31251" lon="1.51392">
        <ele>248.6</ele>
      </trkpt>
      <trkpt lat="44.31251" lon="1.51438">
        <ele>247.5</ele>
        <time>2021-09-30T21:00:45Z</time>
      </trkpt>
      <trkpt lat="44.3124" lon="1.51456">
        <ele>246</ele>
        <time>2021-09-30T21:01:06Z</time>
      </trkpt>
      <trkpt lat="44.31197" lon="1.51555">
        <ele>240</ele>
        <time>2021-09-30T21:02:57Z</time>
      </trkpt>
      <trkpt lat="44.31176" lon="1.51635">
        <ele>239</ele>
        <time>2021-09-30T21:04:18Z</time>
      </trkpt>
      <trkpt lat="44.312" lon="1.51649">
        <ele>238.5</ele>
        <time>2021-09-30T21:04:30Z</time>
      </trkpt>
      <trkpt lat="44.31233" lon="1.51681">
        <ele>236.9</ele>
        <time>2021-09-30T21:05:52Z</time>
      </trkpt>
      <trkpt lat="44.31248" lon="1.51699">
        <ele>235.9</ele>
        <time>2021-09-30T21:06:15Z</time>
      </trkpt>
      <trkpt lat="44.31146" lon="1.51817">
        <ele>231.5</ele>
        <time>2021-09-30T21:06:50Z</time>
      </trkpt>
      <trkpt lat="44.31097" lon="1.51865">
        <ele>229.8</ele>
      </trkpt>
      <trkpt lat="44.31073" lon="1.51844">
        <ele>229.5</ele>
      </trkpt>
      <trkpt lat="44.31049" lon="1.5181">
        <ele>228.8</ele>
        <time>2021-09-30T21:09:02Z</time>
      </trkpt>
      <trkpt lat="44.30981" lon="1.51854">
        <ele>227</ele>
        <time>2021-09-30T21:10:24Z</time>
      </trkpt>
      <trkpt lat="44.30887" lon="1.51959">
        <ele>225</ele>
        <time>2021-09-30T21:13:05Z</time>
      </trkpt>
      <trkpt lat="44.3087" lon="1.51957">
        <ele>227</ele>
        <time>2021-09-30T21:13:28Z</time>
      </trkpt>
      <trkpt lat="44.30817" lon="1.5192">
        <ele>231</ele>
        <time>2021-09-30T21:14:47Z</time>
      </trkpt>
      <trkpt lat="44.30787" lon="1.51919">
        <ele>230</ele>
        <time>2021-09-30T21:15:27Z</time>
      </trkpt>
      <trkpt lat="44.30771" lon="1.51969">
        <ele>229</ele>
        <time>2021-09-30T21:16:19Z</time>
      </trkpt>
      <trkpt lat="44.30746" lon="1.5203">
        <ele>229</ele>
        <time>2021-09-30T21:17:26Z</time>
      </trkpt>
      <trkpt lat="44.30735" lon="1.52032">
        <ele>229</ele>
        <time>2021-09-30T21:17:41Z</time>
      </trkpt>
      <trkpt lat="44.30678" lon="1.51999">
        <ele>226</ele>
        <time>2021-09-30T21:19:03Z</time>
      </trkpt>
      <trkpt lat="44.30597" lon="1.51962">
        <ele>230</ele>
        <time>2021-09-30T21:20:57Z</time>
      </trkpt>
      <trkpt lat="44.30506" lon="1.5193">
        <ele>237</ele>
        <time>2021-09-30T21:23:02Z</time>
      </trkpt>
      <trkpt lat="44.30548" lon="1.51792">
        <ele>241</ele>
        <time>2021-09-30T21:25:25Z</time>
      </trkpt>
      <trkpt lat="44.30533" lon="1.51734">
        <ele>244</ele>
        <time>2021-09-30T21:26:24Z</time>
      </trkpt>
      <trkpt lat="44.3056" lon="1.51657">
        <ele>247</ele>
        <time>2021-09-30T21:27:46Z</time>
      </trkpt>
      <trkpt lat="44.30589" lon="1.51551">
        <ele>251</ele>
        <time>2021-09-30T21:29:34Z</time>
      </trkpt>
      <trkpt lat="44.30605" lon="1.51478">
        <ele>254</ele>
        <time>2021-09-30T21:30:47Z</time>
      </trkpt>
      <trkpt lat="44.30638" lon="1.5136">
        <ele>256</ele>
        <time>2021-09-30T21:32:48Z</time>
      </trkpt>
      <trkpt lat="44.30609" lon="1.51357">
        <ele>254</ele>
        <time>2021-09-30T21:33:27Z</time>
      </trkpt>
      <trkpt lat="44.30579" lon="1.51328">
        <ele>252</ele>
        <time>2021-09-30T21:34:16Z</time>
      </trkpt>
      <trkpt lat="44.30526" lon="1.51315">
        <ele>250</ele>
        <time>2021-09-30T21:35:28Z</time>
      </trkpt>
      <trkpt lat="44.30493" lon="1.51323">
        <ele>249</ele>
        <time>2021-09-30T21:36:12Z</time>
      </trkpt>
      <trkpt lat="44.30453" lon="1.51342">
        <ele>246</ele>
        <time>2021-09-30T21:37:09Z</time>
      </trkpt>
      <trkpt lat="44.30338" lon="1.51427">
        <ele>238</ele>
        <time>2021-09-30T21:40:02Z</time>
      </trkpt>
      <trkpt lat="44.30272" lon="1.51455">
        <ele>235</ele>
        <time>2021-09-30T21:41:34Z</time>
      </trkpt>
      <trkpt lat="44.30223" lon="1.51482">
        <ele>233</ele>
        <time>2021-09-30T21:42:45Z</time>
      </trkpt>
      <trkpt lat="44.30136" lon="1.51491">
        <ele>227</ele>
        <time>2021-09-30T21:44:41Z</time>
      </trkpt>
      <trkpt lat="44.30016" lon="1.51491">
        <ele>218</ele>
        <time>2021-09-30T21:47:21Z</time>
      </trkpt>
      <trkpt lat="44.29975" lon="1.51482">
        <ele>216</ele>
        <time>2021-09-30T21:48:17Z</time>
      </trkpt>
      <trkpt lat="44.29931" lon="1.51487">
        <ele>214</ele>
        <time>2021-09-30T21:49:16Z</time>
      </trkpt>
      <trkpt lat="44.29898" lon="1.51516">
        <ele>211</ele>
        <time>2021-09-30T21:50:08Z</time>
      </trkpt>
      <trkpt lat="44.29846" lon="1.51551">
        <ele>208</ele>
        <time>2021-09-30T21:51:25Z</time>
      </trkpt>
      <trkpt lat="44.29812" lon="1.5157">
        <ele>207</ele>
        <time>2021-09-30T21:52:13Z</time>
      </trkpt>
      <trkpt lat="44.29749" lon="1.51629">
        <ele>203</ele>
        <time>2021-09-30T21:53:55Z</time>
      </trkpt>
      <trkpt lat="44.29723" lon="1.51662">
        <ele>204</ele>
        <time>2021-09-30T21:54:42Z</time>
      </trkpt>
      <trkpt lat="44.2967" lon="1.5161">
        <ele>207</ele>
        <time>2021-09-30T21:56:08Z</time>
      </trkpt>
      <trkpt lat="44.29622" lon="1.5159">
        <ele>207</ele>
        <time>2021-09-30T21:57:15Z</time>
      </trkpt>
      <trkpt lat="44.29555" lon="1.51528">
        <ele>209</ele>
        <time>2021-09-30T21:59:02Z</time>
      </trkpt>
      <trkpt lat="44.29513" lon="1.51514">
        <ele>210</ele>
        <time>2021-09-30T22:00:00Z</time>
      </trkpt>
      <trkpt lat="44.29539" lon="1.5147">
        <ele>208</ele>
        <time>2021-09-30T22:00:54Z</time>
      </trkpt>
      <trkpt lat="44.29514" lon="1.51396">
        <ele>206</ele>
        <time>2021-09-30T22:02:12Z</time>
      </trkpt>
      <trkpt lat="44.29473" lon="1.51306">
        <ele>205</ele>
        <time>2021-09-30T22:03:54Z</time>
      </trkpt>
      <trkpt lat="44.29448" lon="1.51284">
        <ele>205</ele>
        <time>2021-09-30T22:04:34Z</time>
      </trkpt>
      <trkpt lat="44.29401" lon="1.51289">
        <ele>206</ele>
        <time>2021-09-30T22:05:37Z</time>
      </trkpt>
      <trkpt lat="44.29361" lon="1.51448">
        <ele>213</ele>
        <time>2021-09-30T22:08:18Z</time>
      </trkpt>
      <trkpt lat="44.2934" lon="1.51504">
        <ele>217</ele>
        <time>2021-09-30T22:09:18Z</time>
      </trkpt>
      <trkpt lat="44.2929" lon="1.51579">
        <ele>218</ele>
        <time>2021-09-30T22:10:56Z</time>
      </trkpt>
      <trkpt lat="44.29196" lon="1.517">
        <ele>220</ele>
        <time>2021-09-30T22:13:46Z</time>
      </trkpt>
      <trkpt lat="44.29176" lon="1.51738">
        <ele>221</ele>
        <time>2021-09-30T22:14:31Z</time>
      </trkpt>
      <trkpt lat="44.29091" lon="1.51836">
        <ele>226</ele>
        <time>2021-09-30T22:16:59Z</time>
      </trkpt>
      <trkpt lat="44.28987" lon="1.51972">
        <ele>236</ele>
        <time>2021-09-30T22:20:09Z</time>
      </trkpt>
      <trkpt lat="44.28922" lon="1.52016">
        <ele>243</ele>
        <time>2021-09-30T22:21:45Z</time>
      </trkpt>
      <trkpt lat="44.28849" lon="1.52059">
        <ele>247</ele>
        <time>2021-09-30T22:23:31Z</time>
      </trkpt>
      <trkpt lat="44.28792" lon="1.5211">
        <ele>250</ele>
        <time>2021-09-30T22:25:01Z</time>
      </trkpt>
      <trkpt lat="44.28771" lon="1.52106">
        <ele>250</ele>
        <time>2021-09-30T22:25:29Z</time>
      </trkpt>
      <trkpt lat="44.28761" lon="1.52085">
        <ele>249</ele>
        <time>2021-09-30T22:25:53Z</time>
      </trkpt>
      <trkpt lat="44.28748" lon="1.52043">
        <ele>245</ele>
        <time>2021-09-30T22:26:37Z</time>
      </trkpt>
      <trkpt lat="44.28721" lon="1.5202">
        <ele>243</ele>
        <time>2021-09-30T22:27:19Z</time>
      </trkpt>
      <trkpt lat="44.28668" lon="1.52003">
        <ele>246</ele>
        <time>2021-09-30T22:28:32Z</time>
      </trkpt>
      <trkpt lat="44.28628" lon="1.51956">
        <ele>254</ele>
        <time>2021-09-30T22:29:42Z</time>
      </trkpt>
      <trkpt lat="44.28597" lon="1.51932">
        <ele>258</ele>
        <time>2021-09-30T22:30:29Z</time>
      </trkpt>
      <trkpt lat="44.28583" lon="1.51912">
        <ele>260</ele>
        <time>2021-09-30T22:30:56Z</time>
      </trkpt>
    </trkseg>
  </trk>
</gpx>